Terminal Aerodrome Forecast
Issued by NWS Jacksonville, FL

Home | Current Version | Previous Version | Text Only | Print | Product List | Glossary On
Versions: 1 2 3 4 5 6 7 8 9 10 11 12 13 14 15 16 17 18 19
022
FTUS42 KJAX 231132
TAFSSI
TAF
KSSI 231132Z 2312/2412 22008KT P6SM OVC007
     FM231300 22008KT P6SM SCT009 BKN015
     FM231500 24008KT P6SM VCSH SCT025 BKN100
     FM231700 22008KT P6SM -SHRA VCTS SCT030CB BKN050
      TEMPO 2318/2320 VRB15G25KT 4SM -TSRA BKN030CB
     FM240000 22007KT P6SM VCSH SCT030 BKN250
     FM240300 24006KT P6SM SCT250=

USA.gov is the U.S. government's official web portal to all federal, state and local government web resources and services.